Time;durP1;ratioP1;P1;durP2;ratioP2;P2;SDS_P1;SDS_P2;PMS_P1;PMS_P2;Temp;Humidity;BMP_temperature;BMP_pressure;BME280_temperature;BME280_humidity;BME280_pressure;Samples;Min_cycle;Max_cycle;Signal;HPM_P1;HPM_P2
2023/03/28 00:02:12;;;;;;;1.25;0.65;;;;;;;-0.46;100.00;101811.28;4962881;28;20179;-49
2023/03/28 00:04:37;;;;;;;2.60;1.02;;;;;;;-0.44;100.00;101812.22;4966543;28;20185;-49
2023/03/28 00:07:04;;;;;;;1.17;0.70;;;;;;;-0.52;100.00;101819.03;4961222;28;20282;-49
2023/03/28 00:09:30;;;;;;;2.58;0.80;;;;;;;-0.50;100.00;101819.97;4963928;28;20345;-49
2023/03/28 00:11:56;;;;;;;0.75;0.60;;;;;;;-0.53;100.00;101829.53;4965060;28;20170;-48
2023/03/28 00:14:21;;;;;;;2.47;0.70;;;;;;;-0.54;100.00;101839.19;4962142;28;20182;-49
2023/03/28 00:16:47;;;;;;;0.55;0.55;;;;;;;-0.52;100.00;101849.75;4961088;28;20666;-50
2023/03/28 00:19:16;;;;;;;2.15;0.77;;;;;;;-0.54;100.00;101836.53;4962636;28;20209;-48
2023/03/28 00:21:45;;;;;;;1.20;0.60;;;;;;;-0.56;100.00;101840.00;4965460;28;20186;-48
2023/03/28 00:24:13;;;;;;;1.42;0.73;;;;;;;-0.57;100.00;101844.34;4963642;28;20261;-51
2023/03/28 00:26:40;;;;;;;1.25;0.60;;;;;;;-0.60;100.00;101852.19;4962183;28;20256;-48
2023/03/28 00:29:10;;;;;;;3.13;0.73;;;;;;;-0.68;100.00;101859.00;4965238;28;20297;-50
2023/03/28 00:31:38;;;;;;;0.80;0.80;;;;;;;-0.67;100.00;101858.16;4963706;28;20189;-47
2023/03/28 00:34:05;;;;;;;2.83;0.77;;;;;;;-0.65;100.00;101861.72;4964661;28;20183;-48
2023/03/28 00:36:32;;;;;;;1.48;0.55;;;;;;;-0.72;100.00;101865.03;4965201;28;20574;-48
2023/03/28 00:39:05;;;;;;;1.38;0.63;;;;;;;-0.72;100.00;101867.66;4963486;28;20174;-48
2023/03/28 00:41:33;;;;;;;1.10;0.93;;;;;;;-0.74;100.00;101866.78;4963724;28;20272;-48
2023/03/28 00:44:00;;;;;;;1.67;0.70;;;;;;;-0.73;100.00;101873.78;4961169;28;20180;-49
2023/03/28 00:46:28;;;;;;;1.10;0.60;;;;;;;-0.80;100.00;101878.00;4959265;28;20513;-48
2023/03/28 00:49:02;;;;;;;0.80;0.80;;;;;;;-0.81;100.00;101880.59;4963479;28;20234;-48
2023/03/28 00:51:39;;;;;;;2.25;0.77;;;;;;;-0.76;100.00;101873.72;4964719;28;20193;-47
2023/03/28 00:54:10;;;;;;;0.70;0.70;;;;;;;-0.82;100.00;101873.56;4963696;28;20202;-49
2023/03/28 00:56:37;;;;;;;1.52;0.52;;;;;;;-0.84;100.00;101887.56;4952157;28;20214;-47
2023/03/28 00:59:10;;;;;;;1.52;0.70;;;;;;;-0.97;100.00;101874.06;4963635;28;20257;-47
2023/03/28 01:01:36;;;;;;;3.55;0.70;;;;;;;-0.90;100.00;101882.13;4956721;28;20222;-55
2023/03/28 01:04:04;;;;;;;2.15;0.63;;;;;;;-0.87;100.00;101879.59;4960715;28;20261;-48
2023/03/28 01:06:35;;;;;;;0.85;0.60;;;;;;;-0.96;100.00;101894.25;4967362;28;20739;-48
2023/03/28 01:09:05;;;;;;;1.48;1.17;;;;;;;-0.89;100.00;101898.84;4963191;28;20723;-47
2023/03/28 01:11:35;;;;;;;2.67;1.15;;;;;;;-0.91;100.00;101901.41;4968689;28;20203;-49
2023/03/28 01:14:03;;;;;;;2.80;0.77;;;;;;;-0.92;100.00;101898.75;4961557;28;20189;-47
2023/03/28 01:16:29;;;;;;;1.13;0.80;;;;;;;-0.96;100.00;101904.75;4961464;28;20285;-48
2023/03/28 01:19:01;;;;;;;1.55;0.90;;;;;;;-1.04;100.00;101909.84;4966040;28;20186;-48
2023/03/28 01:21:38;;;;;;;1.13;0.90;;;;;;;-0.97;100.00;101898.63;4962538;28;20319;-49
2023/03/28 01:24:33;;;;;;;1.10;0.70;;;;;;;-1.01;100.00;101903.75;4967512;28;20245;-48
2023/03/28 01:27:20;;;;;;;0.85;0.70;;;;;;;-1.00;100.00;101902.94;4953783;28;20261;-47
2023/03/28 01:30:00;;;;;;;3.63;0.80;;;;;;;-1.08;100.00;101915.84;4953606;28;20217;-48
2023/03/28 01:32:51;;;;;;;1.00;0.60;;;;;;;-0.99;100.00;101913.47;4960244;28;20605;-48
2023/03/28 01:36:01;;;;;;;0.80;0.80;;;;;;;-1.06;100.00;101914.16;4951364;28;20286;-50
2023/03/28 01:38:56;;;;;;;3.92;0.95;;;;;;;-1.05;100.00;101922.09;4964203;28;20264;-45
2023/03/28 01:42:03;;;;;;;0.63;0.60;;;;;;;-1.09;100.00;101922.00;4959554;28;20204;-45
2023/03/28 01:44:41;;;;;;;2.08;0.77;;;;;;;-1.14;100.00;101926.22;4959896;28;20256;-44
2023/03/28 01:47:27;;;;;;;1.85;0.90;;;;;;;-1.17;100.00;101926.13;4951157;28;20201;-45
2023/03/28 01:50:11;;;;;;;2.35;1.00;;;;;;;-1.23;100.00;101926.84;4954063;28;20427;-46
2023/03/28 01:52:46;;;;;;;0.80;0.73;;;;;;;-1.31;100.00;101928.41;4947808;28;20177;-45
2023/03/28 01:55:34;;;;;;;1.63;0.95;;;;;;;-1.25;100.00;101939.06;4952994;28;20515;-44
2023/03/28 01:58:09;;;;;;;2.47;0.73;;;;;;;-1.31;100.00;101939.78;4961982;28;20258;-44
2023/03/28 02:00:47;;;;;;;2.05;0.70;;;;;;;-1.26;100.00;101945.19;4968325;28;20194;-44
2023/03/28 02:03:27;;;;;;;2.35;0.90;;;;;;;-1.28;100.00;101945.13;4960167;28;20183;-43
2023/03/28 02:06:03;;;;;;;1.58;0.90;;;;;;;-1.39;100.00;101940.41;4952901;28;20244;-43
2023/03/28 02:08:33;;;;;;;0.95;0.95;;;;;;;-1.45;100.00;101943.75;4960229;28;20206;-43
2023/03/28 02:11:17;;;;;;;1.05;0.93;;;;;;;-1.57;100.00;101939.03;4958350;28;20260;-43
2023/03/28 02:13:57;;;;;;;1.55;0.90;;;;;;;-1.47;100.00;101951.59;4960220;28;20570;-43
2023/03/28 02:16:59;;;;;;;1.63;1.00;;;;;;;-1.44;100.00;101945.56;4924247;28;20645;-45
2023/03/28 02:20:13;;;;;;;2.65;0.80;;;;;;;-1.45;100.00;101949.88;4963039;28;20182;-44
2023/03/28 02:23:14;;;;;;;2.30;1.05;;;;;;;-1.48;100.00;101938.41;4959329;28;20202;-47
2023/03/28 02:25:55;;;;;;;4.15;1.05;;;;;;;-1.57;100.00;101943.41;4955473;28;20797;-44
2023/03/28 02:28:58;;;;;;;0.88;0.73;;;;;;;-1.55;100.00;101950.50;4960684;28;20327;-45
2023/03/28 02:31:37;;;;;;;1.85;0.85;;;;;;;-1.56;100.00;101948.69;4956636;28;20185;-44
2023/03/28 02:34:03;;;;;;;0.88;0.65;;;;;;;-1.56;100.00;101955.69;4960819;28;20292;-44
2023/03/28 02:36:40;;;;;;;1.55;0.80;;;;;;;-1.60;100.00;101959.06;4961259;28;20209;-44
2023/03/28 02:39:47;;;;;;;1.90;1.00;;;;;;;-1.57;100.00;101952.19;4965431;28;20193;-44
2023/03/28 02:42:28;;;;;;;2.03;0.82;;;;;;;-1.61;100.00;101952.94;4956233;28;20236;-44
2023/03/28 02:45:24;;;;;;;4.28;1.02;;;;;;;-1.54;100.00;101951.38;4954900;28;20711;-45
2023/03/28 02:48:12;;;;;;;3.10;1.20;;;;;;;-1.60;100.00;101965.22;4967508;28;20705;-43
2023/03/28 02:51:11;;;;;;;3.35;0.98;;;;;;;-1.52;100.00;101957.56;4971267;28;20272;-43
2023/03/28 02:53:55;;;;;;;1.80;0.85;;;;;;;-1.44;100.00;101966.56;4962564;28;20670;-44
2023/03/28 02:56:28;;;;;;;1.08;0.65;;;;;;;-1.46;100.00;101963.00;4956687;28;20293;-44
2023/03/28 02:59:16;;;;;;;1.58;1.17;;;;;;;-1.73;100.00;101968.31;4955875;28;20194;-44
2023/03/28 03:01:43;;;;;;;1.42;1.10;;;;;;;-1.66;100.00;101967.69;4967212;28;20185;-43
2023/03/28 03:04:10;;;;;;;2.63;0.80;;;;;;;-1.70;100.00;101964.06;4957967;28;20239;-43
2023/03/28 03:06:35;;;;;;;1.65;0.88;;;;;;;-1.65;100.00;101969.44;4966045;28;20277;-43
2023/03/28 03:09:03;;;;;;;1.50;1.00;;;;;;;-1.64;100.00;101960.75;4955994;28;20574;-42
2023/03/28 03:11:30;;;;;;;0.85;0.85;;;;;;;-1.73;100.00;101976.19;4965442;28;20178;-44
2023/03/28 03:13:59;;;;;;;1.80;0.90;;;;;;;-1.67;100.00;101973.75;4974328;28;20558;-43
2023/03/28 03:16:24;;;;;;;1.73;1.00;;;;;;;-1.68;100.00;101972.88;4966709;28;20750;-45
2023/03/28 03:18:51;;;;;;;1.15;1.05;;;;;;;-1.75;100.00;101972.63;4966251;28;20178;-45
2023/03/28 03:21:16;;;;;;;1.65;1.10;;;;;;;-1.71;100.00;101974.50;4963286;28;20205;-43
2023/03/28 03:23:42;;;;;;;1.65;1.02;;;;;;;-1.89;100.00;101967.84;4962709;28;20181;-42
2023/03/28 03:26:07;;;;;;;1.38;1.00;;;;;;;-1.92;100.00;101975.66;4968565;28;20229;-45
2023/03/28 03:28:43;;;;;;;1.45;1.00;;;;;;;-2.02;100.00;101972.69;4963286;28;20624;-42
2023/03/28 03:31:09;;;;;;;3.13;1.00;;;;;;;-1.96;100.00;101973.75;4965883;28;20198;-44
2023/03/28 03:33:55;;;;;;;2.88;1.10;;;;;;;-1.91;100.00;101973.91;4945018;28;20233;-43
2023/03/28 03:36:25;;;;;;;2.33;1.08;;;;;;;-1.93;100.00;101973.84;4964857;28;20309;-42
2023/03/28 03:38:52;;;;;;;1.45;1.10;;;;;;;-1.85;100.00;101984.59;4961567;28;20182;-43
2023/03/28 03:41:20;;;;;;;0.80;0.80;;;;;;;-1.84;100.00;101982.88;4965270;28;20207;-43
2023/03/28 03:43:47;;;;;;;1.30;1.05;;;;;;;-1.83;100.00;101990.81;4966198;28;20186;-43
2023/03/28 03:46:13;;;;;;;2.00;1.00;;;;;;;-1.92;100.00;101986.16;4952682;28;20213;-44
2023/03/28 03:48:38;;;;;;;1.67;1.27;;;;;;;-2.09;100.00;101987.34;4964681;28;20206;-43
2023/03/28 03:51:04;;;;;;;0.95;0.93;;;;;;;-2.09;100.00;101985.59;4954951;28;20667;-47
2023/03/28 03:53:30;;;;;;;0.90;0.90;;;;;;;-2.01;100.00;101985.88;4957658;28;20186;-44
2023/03/28 03:56:05;;;;;;;1.48;0.90;;;;;;;-1.94;100.00;101994.81;4953064;28;20201;-43
2023/03/28 03:58:48;;;;;;;1.02;1.00;;;;;;;-1.95;100.00;102003.53;4964219;28;20226;-45
2023/03/28 04:01:14;;;;;;;1.30;0.90;;;;;;;-1.89;100.00;102009.00;4953134;28;20179;-42
2023/03/28 04:03:40;;;;;;;2.13;1.00;;;;;;;-1.85;100.00;101995.09;4964080;28;20186;-42
2023/03/28 04:06:09;;;;;;;2.55;1.10;;;;;;;-1.81;100.00;102009.25;4959861;28;20232;-43
2023/03/28 04:08:35;;;;;;;2.70;1.00;;;;;;;-1.79;100.00;102002.28;4953250;28;20744;-43
2023/03/28 04:11:02;;;;;;;1.55;1.00;;;;;;;-1.82;100.00;101997.81;4970034;28;20305;-42
2023/03/28 04:13:34;;;;;;;1.25;1.15;;;;;;;-1.82;100.00;102005.69;4959806;28;20638;-44
2023/03/28 04:16:02;;;;;;;1.20;1.02;;;;;;;-2.12;100.00;102017.03;4962303;28;20582;-45
2023/03/28 04:18:49;;;;;;;1.23;1.02;;;;;;;-2.24;100.00;102015.72;4961496;28;20174;-46
2023/03/28 04:21:24;;;;;;;3.05;1.15;;;;;;;-2.29;100.00;102024.34;4965241;28;20284;-42
2023/03/28 04:23:50;;;;;;;1.10;1.00;;;;;;;-2.20;100.00;102015.88;4965180;28;20196;-45
2023/03/28 04:26:34;;;;;;;1.00;0.90;;;;;;;-2.20;100.00;102015.00;4963636;28;20305;-43
2023/03/28 04:29:04;;;;;;;0.80;0.80;;;;;;;-2.37;100.00;102023.19;4965013;28;20435;-44
2023/03/28 04:31:34;;;;;;;1.15;1.05;;;;;;;-2.25;100.00;102024.41;4965714;28;20193;-43
2023/03/28 04:34:18;;;;;;;1.10;1.00;;;;;;;-2.42;100.00;102029.13;4964810;28;20243;-43
2023/03/28 04:37:02;;;;;;;1.52;1.08;;;;;;;-2.41;100.00;102036.16;4959034;28;20577;-44
2023/03/28 04:39:34;;;;;;;2.03;1.10;;;;;;;-2.43;100.00;102033.47;4961327;28;20197;-44
2023/03/28 04:42:20;;;;;;;1.17;0.85;;;;;;;-2.46;100.00;102040.34;4964622;28;20186;-47
2023/03/28 04:45:11;;;;;;;0.98;0.93;;;;;;;-2.42;100.00;102035.25;4962310;28;20218;-45
2023/03/28 04:47:39;;;;;;;1.83;1.13;;;;;;;-2.50;100.00;102034.97;4962373;28;20357;-48
2023/03/28 04:50:11;;;;;;;2.00;1.30;;;;;;;-2.44;100.00;102039.56;4964844;28;20241;-47
2023/03/28 04:52:37;;;;;;;1.55;0.80;;;;;;;-2.54;100.00;102043.59;4962578;28;20186;-47
2023/03/28 04:55:04;;;;;;;1.60;1.15;;;;;;;-2.53;100.00;102057.63;4961691;28;20197;-47
2023/03/28 04:57:31;;;;;;;1.10;1.00;;;;;;;-2.61;100.00;102061.69;4963212;28;20683;-47
2023/03/28 05:00:08;;;;;;;0.85;0.85;;;;;;;-2.52;100.00;102057.66;4958002;28;20182;-47
2023/03/28 05:02:58;;;;;;;4.47;1.25;;;;;;;-2.62;100.00;102060.81;4963909;28;20214;-47
2023/03/28 05:05:26;;;;;;;1.33;1.00;;;;;;;-2.56;100.00;102053.16;4963945;28;20204;-47
2023/03/28 05:07:52;;;;;;;1.20;1.08;;;;;;;-2.50;100.00;102066.47;4951614;28;20358;-47
2023/03/28 05:10:20;;;;;;;1.70;1.27;;;;;;;-2.42;100.00;102065.88;4954669;28;20213;-49
2023/03/28 05:12:46;;;;;;;1.23;0.93;;;;;;;-2.35;100.00;102070.47;4960611;28;20657;-47
2023/03/28 05:15:12;;;;;;;1.58;1.20;;;;;;;-2.40;100.00;102057.19;4953439;28;20230;-44
2023/03/28 05:17:57;;;;;;;2.03;0.90;;;;;;;-2.39;100.00;102063.34;4961820;28;20187;-41
2023/03/28 05:20:29;;;;;;;1.27;1.17;;;;;;;-2.40;100.00;102077.31;4966054;28;20177;-44
2023/03/28 05:22:56;;;;;;;0.98;0.98;;;;;;;-2.47;100.00;102075.28;4960384;28;20226;-44
2023/03/28 05:25:23;;;;;;;1.85;1.13;;;;;;;-2.39;100.00;102073.84;4961648;28;20218;-43
2023/03/28 05:27:50;;;;;;;4.20;1.40;;;;;;;-2.35;100.00;102081.88;4962125;28;20182;-41
2023/03/28 05:30:16;;;;;;;1.65;1.40;;;;;;;-2.32;100.00;102084.63;4954964;28;20216;-43
2023/03/28 05:32:42;;;;;;;2.25;1.60;;;;;;;-2.43;100.00;102085.94;4955581;28;20318;-44
2023/03/28 05:35:12;;;;;;;1.77;1.67;;;;;;;-2.44;100.00;102078.94;4953031;28;20229;-43
2023/03/28 05:37:38;;;;;;;1.30;1.23;;;;;;;-2.32;100.00;102096.81;4960509;28;20190;-43
2023/03/28 05:40:09;;;;;;;2.38;1.52;;;;;;;-2.37;100.00;102093.16;4963381;28;20196;-42
2023/03/28 05:42:37;;;;;;;2.03;1.75;;;;;;;-2.41;100.00;102096.50;4959957;28;20672;-43
2023/03/28 05:45:11;;;;;;;4.32;1.88;;;;;;;-2.39;100.00;102097.44;4956378;28;20202;-43
2023/03/28 05:47:54;;;;;;;1.50;1.40;;;;;;;-2.33;100.00;102108.16;4960423;28;20182;-47
2023/03/28 05:50:22;;;;;;;5.82;1.90;;;;;;;-2.26;100.00;102106.66;4956597;28;20210;-49
2023/03/28 05:52:47;;;;;;;1.60;1.50;;;;;;;-2.17;100.00;102104.34;4953149;28;20383;-49
2023/03/28 05:55:13;;;;;;;3.53;1.45;;;;;;;-1.88;100.00;102102.69;4961951;28;20566;-49
2023/03/28 05:57:39;;;;;;;1.65;1.55;;;;;;;-1.53;100.00;102100.31;4963171;28;20221;-49
2023/03/28 06:00:09;;;;;;;2.60;1.80;;;;;;;-1.05;100.00;102100.94;4966301;28;20186;-48
2023/03/28 06:02:44;;;;;;;2.45;1.77;;;;;;;-0.55;100.00;102105.88;4960081;28;20178;-48
2023/03/28 06:05:11;;;;;;;3.05;1.98;;;;;;;-0.31;100.00;102104.75;4950944;28;20233;-48
2023/03/28 06:07:37;;;;;;;3.20;1.70;;;;;;;0.18;100.00;102100.78;4958250;28;20190;-47
2023/03/28 06:10:05;;;;;;;2.53;1.55;;;;;;;0.49;100.00;102109.44;4957843;28;20553;-48
2023/03/28 06:12:32;;;;;;;2.15;1.42;;;;;;;0.96;100.00;102099.06;4959713;28;20185;-50
2023/03/28 06:14:59;;;;;;;2.80;1.83;;;;;;;0.78;100.00;102100.44;4960211;28;20189;-47
2023/03/28 06:17:29;;;;;;;2.53;1.50;;;;;;;0.82;100.00;102107.56;4951511;28;20189;-49
2023/03/28 06:19:57;;;;;;;4.10;1.60;;;;;;;1.22;100.00;102097.88;4951717;28;20240;-48
2023/03/28 06:22:23;;;;;;;3.88;1.60;;;;;;;1.70;100.00;102092.63;4957924;28;20175;-49
2023/03/28 06:24:54;;;;;;;2.70;1.83;;;;;;;1.50;100.00;102101.06;4961592;28;20193;-49
2023/03/28 06:27:29;;;;;;;2.67;1.40;;;;;;;1.53;100.00;102092.28;4951250;28;20177;-49
2023/03/28 06:29:55;;;;;;;3.58;1.25;;;;;;;1.31;100.00;102090.97;4960326;28;20297;-47
2023/03/28 06:32:21;;;;;;;2.35;1.67;;;;;;;1.72;100.00;102082.97;4958968;28;20265;-47
2023/03/28 06:34:46;;;;;;;3.90;1.90;;;;;;;2.13;100.00;102093.38;4955663;28;20301;-47
2023/03/28 06:37:12;;;;;;;3.05;1.83;;;;;;;2.33;100.00;102078.72;4963126;28;20174;-46
2023/03/28 06:39:49;;;;;;;2.70;1.92;;;;;;;2.37;100.00;102075.28;4951567;28;20177;-48
2023/03/28 06:42:15;;;;;;;2.05;1.30;;;;;;;2.25;100.00;102077.72;4959487;28;20182;-47
2023/03/28 06:44:51;;;;;;;2.13;1.23;;;;;;;1.98;99.06;102076.41;4960099;28;20174;-48
2023/03/28 06:47:40;;;;;;;1.92;1.77;;;;;;;2.10;98.27;102073.09;4951832;28;20186;-46
2023/03/28 06:50:06;;;;;;;7.03;4.45;;;;;;;2.06;97.52;102079.19;4960638;28;20210;-47
2023/03/28 06:53:07;;;;;;;9.02;4.82;;;;;;;2.25;97.31;102081.28;4961977;28;20194;-49
2023/03/28 06:55:34;;;;;;;4.93;4.50;;;;;;;2.26;97.00;102077.75;4958709;28;20285;-49
2023/03/28 06:57:59;;;;;;;5.15;3.70;;;;;;;2.61;96.60;102076.50;4960544;28;20261;-47
2023/03/28 07:00:33;;;;;;;4.93;2.80;;;;;;;2.58;95.57;102073.81;4950461;28;20217;-43
2023/03/28 07:03:37;;;;;;;2.72;1.92;;;;;;;2.84;94.69;102076.81;4953488;28;20538;-46
2023/03/28 07:06:06;;;;;;;4.47;1.40;;;;;;;3.13;93.79;102074.56;4959478;28;20205;-46
2023/03/28 07:08:32;;;;;;;1.52;1.40;;;;;;;3.38;93.00;102086.34;4952769;28;20317;-46
2023/03/28 07:10:58;;;;;;;3.13;1.13;;;;;;;3.68;92.24;102079.63;4960097;28;20197;-48
2023/03/28 07:13:24;;;;;;;2.63;1.27;;;;;;;3.70;90.32;102072.56;4965312;28;20186;-45
2023/03/28 07:16:09;;;;;;;2.50;1.42;;;;;;;3.99;89.77;102082.56;4966104;28;20576;-47
2023/03/28 07:18:35;;;;;;;3.60;1.60;;;;;;;3.91;88.56;102077.16;4962625;28;20178;-46
2023/03/28 07:21:06;;;;;;;3.10;1.77;;;;;;;4.31;88.16;102083.72;4951471;28;20220;-46
2023/03/28 07:23:32;;;;;;;4.63;1.85;;;;;;;4.80;87.22;102075.19;4959808;28;20197;-46
2023/03/28 07:25:57;;;;;;;4.55;1.80;;;;;;;4.42;86.25;102081.16;4958640;28;20668;-45
2023/03/28 07:28:23;;;;;;;3.17;1.90;;;;;;;5.11;85.88;102088.63;4961637;28;20205;-45
2023/03/28 07:30:52;;;;;;;3.60;1.60;;;;;;;5.24;84.22;102073.63;4963289;28;20224;-47
2023/03/28 07:33:17;;;;;;;1.38;1.27;;;;;;;5.25;83.02;102072.75;4963449;28;20658;-48
2023/03/28 07:35:43;;;;;;;4.13;1.10;;;;;;;5.23;82.25;102085.16;4965240;28;20256;-46
2023/03/28 07:38:11;;;;;;;2.10;1.15;;;;;;;5.31;81.82;102086.97;4963462;28;20671;-46
2023/03/28 07:40:48;;;;;;;4.20;1.40;;;;;;;5.55;81.54;102083.50;4955157;28;20384;-46
2023/03/28 07:43:14;;;;;;;3.38;1.33;;;;;;;5.98;80.74;102086.25;4963948;28;20193;-46
2023/03/28 07:45:40;;;;;;;7.55;1.55;;;;;;;6.10;80.24;102092.44;4968443;28;20257;-45
2023/03/28 07:48:06;;;;;;;3.80;1.30;;;;;;;6.07;79.76;102098.66;4966364;28;20202;-46
2023/03/28 07:50:32;;;;;;;6.50;1.40;;;;;;;6.17;79.31;102095.13;4968333;28;20275;-46
2023/03/28 07:52:58;;;;;;;2.95;0.98;;;;;;;6.25;78.79;102100.44;4966404;28;20257;-46
2023/03/28 07:55:27;;;;;;;1.55;0.70;;;;;;;6.05;77.90;102099.56;4953792;28;20793;-45
2023/03/28 07:57:53;;;;;;;3.38;1.00;;;;;;;6.26;77.83;102098.69;4962521;28;20247;-46
2023/03/28 08:00:32;;;;;;;5.80;1.15;;;;;;;6.48;77.39;102086.25;4964200;28;20182;-46
2023/03/28 08:03:24;;;;;;;5.95;1.05;;;;;;;6.35;76.89;102101.34;4963245;28;20202;-45
2023/03/28 08:05:50;;;;;;;5.03;1.13;;;;;;;6.52;76.19;102082.69;4955694;28;20206;-47
2023/03/28 08:08:18;;;;;;;4.10;1.17;;;;;;;6.50;75.34;102088.03;4954392;28;20528;-46
2023/03/28 08:10:50;;;;;;;5.05;1.52;;;;;;;6.37;74.96;102086.25;4964127;28;20273;-46
2023/03/28 08:13:17;;;;;;;4.82;1.10;;;;;;;6.46;75.03;102085.38;4954546;28;20629;-46
2023/03/28 08:15:42;;;;;;;2.72;0.98;;;;;;;6.62;75.40;102096.88;4961029;28;20721;-46
2023/03/28 08:18:08;;;;;;;3.60;1.02;;;;;;;6.56;75.49;102101.34;4953569;28;20219;-45
2023/03/28 08:20:35;;;;;;;2.00;0.90;;;;;;;6.92;74.90;102094.16;4965734;28;20186;-46
2023/03/28 08:23:10;;;;;;;3.35;1.10;;;;;;;7.16;74.90;102100.28;4955621;28;20200;-48
2023/03/28 08:25:43;;;;;;;1.90;0.80;;;;;;;6.73;74.36;102103.06;4963338;28;20598;-45
2023/03/28 08:28:10;;;;;;;2.08;1.00;;;;;;;7.31;73.92;102094.91;4970688;28;20692;-45
2023/03/28 08:30:36;;;;;;;6.25;1.25;;;;;;;6.92;73.16;102094.16;4955602;28;20535;-47
2023/03/28 08:33:03;;;;;;;1.90;1.02;;;;;;;6.71;73.25;102088.88;4957391;28;20174;-46
2023/03/28 08:35:32;;;;;;;3.42;0.90;;;;;;;6.76;72.43;102087.97;4966322;28;20232;-46
2023/03/28 08:38:02;;;;;;;2.30;1.10;;;;;;;7.04;72.90;102092.31;4954839;28;20613;-46
2023/03/28 08:40:28;;;;;;;1.67;1.00;;;;;;;7.07;72.20;102092.34;4953757;28;20250;-46
2023/03/28 08:43:25;;;;;;;4.53;1.30;;;;;;;7.07;71.88;102087.00;4948805;28;20291;-45
2023/03/28 08:45:54;;;;;;;2.15;0.93;;;;;;;7.29;72.21;102102.03;4966432;28;20264;-45
2023/03/28 08:48:40;;;;;;;5.15;1.23;;;;;;;7.00;70.40;102088.81;4962695;28;20210;-46
2023/03/28 08:51:10;;;;;;;4.53;1.00;;;;;;;6.95;70.31;102078.16;4955582;28;20175;-48
2023/03/28 08:53:42;;;;;;;3.55;1.20;;;;;;;6.88;69.96;102075.50;4963917;28;20182;-48
2023/03/28 08:56:08;;;;;;;1.98;0.82;;;;;;;6.54;69.74;102072.94;4960868;28;20206;-47
2023/03/28 08:59:01;;;;;;;3.17;0.80;;;;;;;6.68;69.82;102078.22;4968749;28;20218;-46
2023/03/28 09:01:31;;;;;;;3.17;1.05;;;;;;;6.57;69.35;102080.91;4961509;28;20606;-44
2023/03/28 09:03:59;;;;;;;3.33;1.02;;;;;;;6.30;69.10;102068.53;4963388;28;20636;-46
2023/03/28 09:06:38;;;;;;;2.25;0.77;;;;;;;5.53;68.49;102071.06;4966097;28;20190;-47
2023/03/28 09:09:15;;;;;;;3.60;0.90;;;;;;;6.18;69.23;102083.59;4962428;28;20420;-46
2023/03/28 09:11:43;;;;;;;1.75;0.77;;;;;;;6.44;67.80;102071.16;4962213;28;20256;-45
2023/03/28 09:14:40;;;;;;;4.38;0.98;;;;;;;6.88;66.31;102059.53;4953782;28;20325;-47
2023/03/28 09:17:12;;;;;;;2.30;0.80;;;;;;;6.58;65.26;102045.38;4965127;28;20240;-45
2023/03/28 09:19:58;;;;;;;1.60;0.60;;;;;;;6.56;64.03;102032.09;4966773;28;20198;-45
2023/03/28 09:23:03;;;;;;;1.73;0.70;;;;;;;6.35;63.81;102022.38;4961684;28;20752;-45
2023/03/28 09:26:27;;;;;;;1.33;0.80;;;;;;;6.21;64.35;102025.94;4962808;28;20309;-46
2023/03/28 09:29:09;;;;;;;1.83;1.10;;;;;;;6.26;65.03;102034.81;4932774;28;20221;-45
2023/03/28 09:31:44;;;;;;;2.22;0.80;;;;;;;6.04;65.26;102047.25;4962813;28;20906;-45
2023/03/28 09:34:43;;;;;;;4.00;0.80;;;;;;;6.28;65.39;102043.69;4952302;28;20232;-45
2023/03/28 09:37:27;;;;;;;3.25;0.82;;;;;;;5.77;63.54;102020.59;4958795;28;20229;-43
2023/03/28 09:39:55;;;;;;;2.78;1.02;;;;;;;6.13;63.75;102012.66;4963959;28;20179;-47
2023/03/28 09:42:55;;;;;;;2.17;0.68;;;;;;;5.82;63.08;102017.06;4950753;28;20175;-46
2023/03/28 09:45:45;;;;;;;1.27;0.60;;;;;;;6.02;62.14;102001.13;4961592;28;20315;-45
2023/03/28 09:48:32;;;;;;;1.45;0.60;;;;;;;5.99;61.98;102002.00;4962459;28;20738;-46
2023/03/28 09:51:12;;;;;;;2.35;0.90;;;;;;;6.74;61.84;102015.19;4954084;28;20165;-47
2023/03/28 09:53:38;;;;;;;1.40;0.60;;;;;;;6.08;60.43;101983.38;4964971;28;20194;-44
2023/03/28 09:56:31;;;;;;;1.88;1.27;;;;;;;6.28;60.25;101982.47;4961832;28;20329;-45
2023/03/28 09:59:11;;;;;;;1.95;0.77;;;;;;;7.11;60.23;101990.16;4966828;28;20214;-45
2023/03/28 10:01:46;;;;;;;1.50;0.80;;;;;;;6.36;59.25;101973.59;4962126;28;20181;-46
2023/03/28 10:04:27;;;;;;;2.42;0.90;;;;;;;6.65;59.89;101985.00;4960736;28;20671;-46
2023/03/28 10:07:10;;;;;;;1.45;0.68;;;;;;;6.44;58.83;101972.66;4964491;28;20263;-43
2023/03/28 10:10:01;;;;;;;1.27;0.50;;;;;;;6.15;59.33;101982.47;4967380;28;20220;-40
2023/03/28 10:12:32;;;;;;;2.67;0.68;;;;;;;6.21;59.37;101975.38;4965490;28;20533;-43
2023/03/28 10:14:58;;;;;;;2.85;0.73;;;;;;;5.70;58.71;101962.97;4964948;28;20187;-41
2023/03/28 10:17:49;;;;;;;1.42;0.63;;;;;;;6.20;58.35;101966.50;4928845;28;20206;-43
2023/03/28 10:20:22;;;;;;;0.93;0.60;;;;;;;7.18;58.05;101968.78;4968290;28;20259;-43
2023/03/28 10:22:54;;;;;;;1.25;0.63;;;;;;;6.39;57.05;101941.63;4963174;28;20195;-42
2023/03/28 10:25:34;;;;;;;3.13;0.80;;;;;;;6.81;57.27;101966.31;4961640;28;20214;-43
2023/03/28 10:28:02;;;;;;;1.33;0.65;;;;;;;6.56;58.06;101965.53;4962277;28;20194;-42
2023/03/28 10:30:31;;;;;;;1.08;0.50;;;;;;;6.99;58.02;101962.66;4957968;28;20670;-43
2023/03/28 10:33:25;;;;;;;0.98;0.68;;;;;;;7.08;58.06;101963.53;4967519;28;20185;-41
2023/03/28 10:36:09;;;;;;;0.90;0.60;;;;;;;6.67;57.58;101953.94;4958215;28;20214;-42
2023/03/28 10:38:44;;;;;;;4.15;0.70;;;;;;;7.54;57.14;101942.78;4962788;28;20636;-41
2023/03/28 10:41:29;;;;;;;4.22;0.82;;;;;;;6.91;55.89;101931.63;4951917;28;20253;-45
2023/03/28 10:44:39;;;;;;;1.95;0.93;;;;;;;6.70;55.55;101929.97;4963349;28;20672;-44
2023/03/28 10:47:15;;;;;;;2.63;0.50;;;;;;;6.92;56.29;101936.09;4966329;28;20194;-42
2023/03/28 10:50:47;;;;;;;2.00;0.68;;;;;;;7.99;55.54;101937.94;4957440;28;20234;-42
2023/03/28 10:53:27;;;;;;;2.58;0.70;;;;;;;7.79;55.34;101927.44;4946731;28;20190;-43
2023/03/28 10:56:01;;;;;;;2.47;0.60;;;;;;;8.21;55.00;101935.94;4953143;28;20210;-44
2023/03/28 10:58:44;;;;;;;3.05;0.73;;;;;;;7.26;54.28;101910.13;4960326;28;20173;-44
2023/03/28 11:01:19;;;;;;;3.22;0.57;;;;;;;7.46;54.68;101919.75;4955288;28;20193;-44
2023/03/28 11:04:36;;;;;;;2.72;0.70;;;;;;;7.03;54.88;101930.69;4961102;28;20259;-43
2023/03/28 11:07:25;;;;;;;1.20;0.60;;;;;;;6.73;55.46;101933.50;4953896;28;20201;-44
2023/03/28 11:10:38;;;;;;;4.32;0.80;;;;;;;7.05;55.99;101942.22;4954714;28;20219;-42
2023/03/28 11:13:30;;;;;;;1.75;0.77;;;;;;;7.09;55.47;101942.19;4964148;28;20188;-43
2023/03/28 11:16:10;;;;;;;2.65;0.90;;;;;;;7.92;56.27;101967.38;4973075;28;20197;-46
2023/03/28 11:19:08;;;;;;;1.73;0.70;;;;;;;7.51;55.70;101936.59;4970543;28;20178;-41
2023/03/28 11:22:01;;;;;;;3.63;1.10;;;;;;;7.41;55.69;101928.66;4966747;28;20221;-45
2023/03/28 11:24:52;;;;;;;4.22;0.80;;;;;;;7.63;56.07;101940.03;4966786;28;20656;-46
2023/03/28 11:27:50;;;;;;;2.60;1.08;;;;;;;8.21;56.17;101956.41;4969299;28;20189;-44
2023/03/28 11:30:32;;;;;;;2.17;0.65;;;;;;;8.03;55.21;101928.13;4965494;28;20645;-45
2023/03/28 11:33:39;;;;;;;2.33;0.77;;;;;;;7.78;54.92;101922.13;4966914;28;20663;-48
2023/03/28 11:36:18;;;;;;;4.72;0.70;;;;;;;7.34;55.53;101924.25;4954457;28;20206;-49
2023/03/28 11:38:50;;;;;;;4.05;1.15;;;;;;;6.88;56.60;101924.53;4963421;28;20174;-47
2023/03/28 11:41:20;;;;;;;2.47;0.90;;;;;;;6.86;56.60;101934.31;4968838;28;20359;-48
2023/03/28 11:44:25;;;;;;;2.97;0.80;;;;;;;6.99;57.26;101948.47;4966696;28;20692;-43
2023/03/28 11:47:22;;;;;;;5.18;0.90;;;;;;;7.03;57.27;101939.56;4951595;28;20322;-43
2023/03/28 11:50:03;;;;;;;1.30;0.85;;;;;;;7.23;57.21;101934.09;4949531;28;20265;-44
2023/03/28 11:53:05;;;;;;;2.25;0.80;;;;;;;7.20;56.51;101936.81;4960747;28;20242;-47
2023/03/28 11:55:46;;;;;;;4.25;0.80;;;;;;;7.52;56.93;101931.25;4957103;28;20210;-44
2023/03/28 11:58:31;;;;;;;3.85;0.88;;;;;;;7.89;56.41;101930.03;4962981;28;20205;-43
2023/03/28 12:01:02;;;;;;;4.30;1.33;;;;;;;7.89;57.32;101938.03;4964424;28;20741;-46
2023/03/28 12:04:06;;;;;;;4.05;1.17;;;;;;;7.88;57.08;101933.63;4966522;28;20170;-48
2023/03/28 12:06:32;;;;;;;4.63;1.00;;;;;;;7.78;56.87;101932.78;4950920;28;20217;-47